createdAt,value
2017-12-06T00:00:25.298Z,97328.62
2017-12-06T00:02:06.001Z,97263.06
2017-12-06T00:03:45.116Z,97268.59
2017-12-06T00:05:24.707Z,97142.15
2017-12-06T00:07:06.892Z,97193.05
2017-12-06T00:08:46.488Z,97238.28
2017-12-06T00:10:25.891Z,97330.53
2017-12-06T00:12:10.796Z,97298.34
2017-12-06T00:15:44.794Z,97308.31
2017-12-06T00:17:25.096Z,97271.20
2017-12-06T00:19:09.187Z,97300.39
2017-12-06T00:20:50.521Z,97220.86
2017-12-06T00:22:31.323Z,97107.30
2017-12-06T00:24:12.512Z,97028.59
2017-12-06T00:25:53.017Z,97113.92
2017-12-06T00:27:35.523Z,97143.43
2017-12-06T00:29:14.636Z,97155.63
2017-12-06T00:30:56.128Z,97042.45
2017-12-06T00:32:34.178Z,97000.30
2017-12-06T00:34:12.008Z,97055.23
2017-12-06T00:35:53.066Z,97199.91
2017-12-06T00:37:37.962Z,97184.67
2017-12-06T00:39:19.237Z,97144.38
2017-12-06T00:41:00.651Z,97142.11
2017-12-06T00:42:41.742Z,97280.83
2017-12-06T00:44:23.950Z,97193.48
2017-12-06T00:46:08.156Z,97033.77
2017-12-06T00:47:49.047Z,97146.98
2017-12-06T00:49:28.455Z,97263.33
2017-12-06T00:51:08.559Z,97057.19
2017-12-06T00:52:51.056Z,97053.89
2017-12-06T00:54:30.147Z,97112.17
2017-12-06T00:56:11.851Z,97113.41
2017-12-06T00:57:54.684Z,97226.52
2017-12-06T00:59:34.144Z,97269.41
2017-12-06T01:01:14.729Z,97222.45
2017-12-06T01:02:54.248Z,97267.30
2017-12-06T01:04:36.220Z,97346.08
2017-12-06T01:06:13.646Z,97225.06
2017-12-06T01:07:56.131Z,97070.73
2017-12-06T01:09:37.749Z,97172.98
2017-12-06T01:11:26.127Z,97231.22
2017-12-06T01:13:10.009Z,97329.05
2017-12-06T01:14:47.919Z,97229.47
2017-12-06T01:16:30.460Z,97262.00
2017-12-06T01:18:08.725Z,97248.17
2017-12-06T01:19:49.226Z,97317.27
2017-12-06T01:21:29.130Z,97145.88
2017-12-06T01:23:08.226Z,97130.34
2017-12-06T01:24:47.530Z,97220.23
2017-12-06T01:26:26.130Z,97257.63
2017-12-06T01:28:06.531Z,97146.77
2017-12-06T01:29:46.725Z,97179.88
2017-12-06T01:31:26.348Z,97204.61
2017-12-06T01:33:05.530Z,97138.94
2017-12-06T01:34:44.912Z,97211.58
2017-12-06T01:36:24.112Z,97256.81
2017-12-06T01:38:03.213Z,97139.45
2017-12-06T01:39:42.122Z,97034.16
2017-12-06T01:41:21.004Z,96965.48
2017-12-06T01:43:00.008Z,96976.42
2017-12-06T01:44:40.008Z,97029.45
2017-12-06T01:46:19.512Z,97030.73
2017-12-06T01:47:59.701Z,97140.31
2017-12-06T01:49:38.909Z,97184.16
2017-12-06T01:51:17.402Z,97038.42
2017-12-06T01:52:56.713Z,96878.55
2017-12-06T01:54:36.297Z,96960.66
2017-12-06T01:56:25.799Z,97151.98
2017-12-06T01:58:05.303Z,97268.89
2017-12-06T01:59:44.506Z,97184.11
2017-12-06T02:01:26.002Z,97069.32
2017-12-06T02:03:05.905Z,97143.34
2017-12-06T02:04:46.608Z,97187.66
2017-12-06T02:06:26.114Z,97279.77
2017-12-06T02:08:05.542Z,97288.06
2017-12-06T02:09:46.227Z,97107.21
2017-12-06T02:11:25.229Z,97191.00
2017-12-06T02:13:05.434Z,97057.14
2017-12-06T02:14:44.940Z,97125.86
2017-12-06T02:16:24.142Z,97141.59
2017-12-06T02:18:03.950Z,97084.97
2017-12-06T02:19:43.955Z,97225.41
2017-12-06T02:21:24.754Z,97213.68
2017-12-06T02:23:03.961Z,97328.06
2017-12-06T02:24:41.845Z,97330.58
2017-12-06T02:26:19.722Z,97336.88
2017-12-06T02:27:58.565Z,97353.75
2017-12-06T02:29:37.963Z,97112.81
2017-12-06T02:32:56.114Z,97189.30
2017-12-06T02:34:33.033Z,97253.19
2017-12-06T02:36:11.896Z,97268.89
2017-12-06T02:37:52.982Z,97347.67
2017-12-06T02:39:44.156Z,97352.00
2017-12-06T02:42:09.650Z,97305.02
2017-12-06T02:45:32.249Z,97081.94
2017-12-06T02:47:12.049Z,97112.00
2017-12-06T02:48:50.842Z,97097.13
2017-12-06T02:50:30.542Z,97164.91
2017-12-06T02:52:11.264Z,97217.58
2017-12-06T02:53:51.230Z,97091.05
2017-12-06T02:55:32.117Z,96978.13
2017-12-06T02:57:11.329Z,97076.69
2017-12-06T02:58:51.644Z,97198.45
2017-12-06T03:00:30.626Z,97140.53
2017-12-06T03:02:09.326Z,96989.28
2017-12-06T03:03:50.028Z,97127.61
2017-12-06T03:05:30.528Z,97172.39
2017-12-06T03:07:10.224Z,97064.53
2017-12-06T03:08:49.126Z,97218.43
2017-12-06T03:10:28.454Z,97218.34
2017-12-06T03:12:08.851Z,97195.41
2017-12-06T03:13:49.337Z,97299.33
2017-12-06T03:15:28.435Z,97341.63
2017-12-06T03:17:07.938Z,97186.64
2017-12-06T03:18:46.654Z,97109.39
2017-12-06T03:20:26.051Z,97238.89
2017-12-06T03:22:05.151Z,97101.48
2017-12-06T03:23:47.814Z,97237.22
2017-12-06T03:25:26.852Z,97337.22
2017-12-06T03:27:06.662Z,97370.83
2017-12-06T03:28:46.162Z,97326.30
2017-12-06T03:30:32.075Z,97308.48
2017-12-06T03:32:18.564Z,97365.92
2017-12-06T03:33:58.168Z,97245.34
2017-12-06T03:35:37.085Z,97292.91
2017-12-06T03:37:17.267Z,97242.44
2017-12-06T03:38:56.872Z,97335.94
2017-12-06T03:40:39.076Z,97281.91
2017-12-06T03:42:19.906Z,97163.28
2017-12-06T03:43:58.769Z,97264.52
2017-12-06T03:45:39.178Z,97336.32
2017-12-06T03:47:18.261Z,97390.36
2017-12-06T03:48:57.666Z,97474.44
2017-12-06T03:50:36.658Z,97537.19
2017-12-06T03:52:16.353Z,97553.78
2017-12-06T03:53:55.256Z,97458.59
2017-12-06T03:55:35.163Z,97413.81
2017-12-06T03:57:13.753Z,97488.33
2017-12-06T03:58:53.149Z,97428.71
2017-12-06T04:00:33.743Z,97386.98
2017-12-06T04:02:12.339Z,97427.90
2017-12-06T04:03:53.656Z,97500.53
2017-12-06T04:05:33.272Z,97495.35
2017-12-06T04:07:13.945Z,97338.12
2017-12-06T04:08:58.760Z,97287.59
2017-12-06T04:10:37.746Z,97437.38
2017-12-06T04:12:15.844Z,97555.89
2017-12-06T04:13:54.850Z,97582.95
2017-12-06T04:15:35.442Z,97438.66
2017-12-06T04:17:16.849Z,97349.47
2017-12-06T04:19:01.446Z,97379.92
2017-12-06T04:20:48.322Z,97514.52
2017-12-06T04:22:28.054Z,97568.53
2017-12-06T04:24:12.954Z,97597.70
2017-12-06T04:25:54.274Z,97397.70
2017-12-06T04:27:33.862Z,97366.26
2017-12-06T04:29:15.752Z,97456.09
2017-12-06T04:30:54.759Z,97446.92
2017-12-06T04:32:34.367Z,97293.59
2017-12-06T04:34:13.087Z,97084.93
2017-12-06T04:35:54.484Z,97208.84
2017-12-06T04:37:33.755Z,97269.70
2017-12-06T04:39:13.359Z,97278.39
2017-12-06T04:40:54.497Z,97261.48
2017-12-06T04:42:36.366Z,97314.52
2017-12-06T04:44:18.964Z,97316.75
2017-12-06T04:45:58.669Z,97208.77
2017-12-06T04:47:38.285Z,97173.72
2017-12-06T04:49:16.870Z,97135.34
2017-12-06T04:51:00.368Z,97107.59
2017-12-06T04:52:40.005Z,97278.86
2017-12-06T04:54:18.595Z,97222.37
2017-12-06T04:55:58.077Z,97088.86
2017-12-06T04:57:37.613Z,97241.07
2017-12-06T05:00:56.715Z,97197.13
2017-12-06T05:02:33.865Z,97286.66
2017-12-06T05:04:12.204Z,97309.77
2017-12-06T05:05:49.548Z,97365.02
2017-12-06T05:07:30.307Z,97435.15
2017-12-06T05:09:10.315Z,97507.91
2017-12-06T05:10:48.634Z,97520.98
2017-12-06T05:12:27.418Z,97511.39
2017-12-06T05:14:07.920Z,97421.26
2017-12-06T05:15:47.222Z,97397.27
2017-12-06T05:17:26.124Z,97429.05
2017-12-06T05:20:49.735Z,97575.02
2017-12-06T05:22:28.733Z,97531.45
2017-12-06T05:24:15.040Z,97398.52
2017-12-06T05:25:53.745Z,97316.32
2017-12-06T05:27:33.254Z,97401.68
2017-12-06T05:29:12.743Z,97340.69
2017-12-06T05:30:52.533Z,97408.15
2017-12-06T05:32:31.631Z,97422.03
2017-12-06T05:34:10.453Z,97405.96
2017-12-06T05:35:49.558Z,97263.20
2017-12-06T05:37:29.332Z,97080.09
2017-12-06T05:39:08.231Z,97134.11
2017-12-06T05:40:48.325Z,97158.02
2017-12-06T05:42:27.645Z,96998.77
2017-12-06T05:44:06.528Z,97083.98
2017-12-06T05:45:46.147Z,97097.93
2017-12-06T05:47:31.529Z,96933.98
2017-12-06T05:49:10.024Z,97048.77
2017-12-06T05:50:50.521Z,97095.23
2017-12-06T05:52:29.120Z,97044.41
2017-12-06T05:54:08.227Z,97182.19
2017-12-06T05:55:46.844Z,97115.67
2017-12-06T05:57:26.521Z,97113.12
2017-12-06T05:59:05.419Z,97126.16
2017-12-06T06:00:45.722Z,97261.40
2017-12-06T06:02:24.524Z,97360.69
2017-12-06T06:04:03.228Z,97419.38
2017-12-06T06:05:43.538Z,97337.87
2017-12-06T06:07:22.522Z,97277.06
2017-12-06T06:09:01.423Z,97142.28
2017-12-06T06:10:40.326Z,97104.73
2017-12-06T06:13:55.919Z,97236.53
2017-12-06T06:15:34.828Z,97136.59
2017-12-06T06:17:14.535Z,97227.03
2017-12-06T06:18:54.828Z,97300.48
2017-12-06T06:20:33.929Z,97256.56
2017-12-06T06:22:13.422Z,97241.45
2017-12-06T06:23:51.923Z,97210.52
2017-12-06T06:25:31.218Z,97271.80
2017-12-06T06:27:10.716Z,97319.67
2017-12-06T06:28:51.043Z,97354.18
2017-12-06T06:30:31.719Z,97334.56
2017-12-06T06:32:18.715Z,97361.55
2017-12-06T06:33:57.611Z,97352.38
2017-12-06T06:35:36.311Z,97520.09
2017-12-06T06:37:22.327Z,97623.83
2017-12-06T06:39:00.925Z,97657.45
2017-12-06T06:40:42.225Z,97429.48
2017-12-06T06:42:21.153Z,97407.25
2017-12-06T06:44:00.235Z,97285.33
2017-12-06T06:45:39.853Z,97405.06
2017-12-06T06:47:19.435Z,97347.97
2017-12-06T06:49:00.651Z,97264.01
2017-12-06T06:50:39.057Z,97375.42
2017-12-06T06:52:19.450Z,97349.30
2017-12-06T06:53:59.769Z,97295.30
2017-12-06T06:55:39.262Z,97283.06
2017-12-06T06:57:18.569Z,97203.45
2017-12-06T06:58:58.274Z,97016.16
2017-12-06T07:00:38.571Z,97040.12
2017-12-06T07:02:20.273Z,97191.81
2017-12-06T07:03:59.357Z,97131.77
2017-12-06T07:05:37.957Z,97077.02
2017-12-06T07:07:17.187Z,97100.16
2017-12-06T07:08:56.895Z,97119.27
2017-12-06T07:10:38.567Z,97246.98
2017-12-06T07:12:18.273Z,97141.77
2017-12-06T07:13:57.891Z,97086.09
2017-12-06T07:15:37.106Z,97136.13
2017-12-06T07:17:17.763Z,97187.50
2017-12-06T07:18:58.067Z,97199.22
2017-12-06T07:20:37.067Z,97293.08
2017-12-06T07:22:17.272Z,97361.85
2017-12-06T07:23:56.887Z,97296.08
2017-12-06T07:25:37.767Z,97199.95
2017-12-06T07:27:16.993Z,97121.36
2017-12-06T07:28:57.877Z,97238.38
2017-12-06T07:30:37.178Z,97330.16
2017-12-06T07:32:23.022Z,97267.39
2017-12-06T07:34:01.771Z,97307.03
2017-12-06T07:35:42.733Z,97345.36
2017-12-06T07:37:21.584Z,97327.07
2017-12-06T07:39:01.477Z,97415.86
2017-12-06T07:40:41.277Z,97307.03
2017-12-06T07:42:20.243Z,97203.88
2017-12-06T07:43:59.281Z,97169.23
2017-12-06T07:45:38.676Z,97229.22
2017-12-06T07:47:18.770Z,97324.38
2017-12-06T07:48:59.579Z,97360.95
2017-12-06T07:50:38.186Z,97402.87
2017-12-06T07:52:19.962Z,97391.96
2017-12-06T07:53:58.761Z,97386.69
2017-12-06T07:55:37.359Z,97509.12
2017-12-06T07:57:16.853Z,97644.33
2017-12-06T07:58:56.659Z,97685.34
2017-12-06T08:00:39.872Z,97632.96
2017-12-06T08:02:19.474Z,97655.30
2017-12-06T08:04:02.966Z,97579.73
2017-12-06T08:05:43.269Z,97588.99
2017-12-06T08:07:22.554Z,97670.92
2017-12-06T08:09:01.852Z,97538.78
2017-12-06T08:10:40.671Z,97490.34
2017-12-06T08:12:20.552Z,97494.75
2017-12-06T08:13:59.950Z,97438.95
2017-12-06T08:15:39.445Z,97298.81
2017-12-06T08:17:18.855Z,97408.07
2017-12-06T08:18:57.957Z,97438.14
2017-12-06T08:20:36.550Z,97432.49
2017-12-06T08:22:16.045Z,97561.08
2017-12-06T08:23:55.441Z,97639.09
2017-12-06T08:25:34.645Z,97679.98
2017-12-06T08:27:13.344Z,97661.75
2017-12-06T08:28:53.243Z,97522.27
2017-12-06T08:30:32.652Z,97471.15
2017-12-06T08:32:16.059Z,97409.78
2017-12-06T08:33:55.462Z,97408.07
2017-12-06T08:35:34.249Z,97406.70
2017-12-06T08:37:13.360Z,97450.35
2017-12-06T08:38:52.159Z,97502.52
2017-12-06T08:40:32.171Z,97525.71
2017-12-06T08:42:11.384Z,97545.73
2017-12-06T08:43:50.381Z,97545.73
2017-12-06T08:45:31.282Z,97589.42
2017-12-06T08:47:10.188Z,97499.48
2017-12-06T08:48:49.089Z,97381.08
2017-12-06T08:50:29.095Z,97429.80
2017-12-06T08:52:07.624Z,97516.14
2017-12-06T08:53:44.661Z,97517.47
2017-12-06T08:55:23.810Z,97606.88
2017-12-06T08:57:03.627Z,97645.66
2017-12-06T08:58:42.610Z,97720.31
2017-12-06T09:00:24.524Z,97711.47
2017-12-06T09:02:07.309Z,97572.32
2017-12-06T09:03:49.034Z,97418.56
2017-12-06T09:05:28.197Z,97343.27
2017-12-06T09:07:07.730Z,97487.42
2017-12-06T09:08:48.616Z,97512.76
2017-12-06T09:10:33.220Z,97354.14
2017-12-06T09:12:12.232Z,97425.55
2017-12-06T09:13:53.057Z,97388.02
2017-12-06T09:15:32.842Z,97394.61
2017-12-06T09:17:14.835Z,97403.30
2017-12-06T09:18:56.135Z,97413.30
2017-12-06T09:20:34.949Z,97547.92
2017-12-06T09:22:15.445Z,97426.40
2017-12-06T09:23:54.638Z,97309.22
2017-12-06T09:25:35.441Z,97428.08
2017-12-06T09:27:18.444Z,97470.45
2017-12-06T09:28:59.353Z,97473.49
2017-12-06T09:30:38.449Z,97481.69
2017-12-06T09:32:20.345Z,97647.80
2017-12-06T09:34:00.130Z,97771.31
2017-12-06T09:35:39.247Z,97788.28
2017-12-06T09:37:19.447Z,97845.61
2017-12-06T09:38:59.939Z,97831.14
2017-12-06T09:40:41.853Z,97612.92
2017-12-06T09:42:22.633Z,97601.22
2017-12-06T09:44:02.106Z,97635.66
2017-12-06T09:45:41.450Z,97618.13
2017-12-06T09:47:22.676Z,97708.98
2017-12-06T09:49:01.858Z,97801.89
2017-12-06T09:50:41.943Z,97796.22
2017-12-06T09:52:21.745Z,97615.47
2017-12-06T09:54:01.352Z,97598.09
2017-12-06T09:55:40.241Z,97660.53
2017-12-06T09:57:22.556Z,97733.38
2017-12-06T09:59:05.745Z,97525.71
2017-12-06T10:00:43.766Z,97521.69
2017-12-06T10:02:22.746Z,97515.33
2017-12-06T10:03:59.934Z,97452.58
2017-12-06T10:05:40.544Z,97526.57
2017-12-06T10:07:19.007Z,97679.76
2017-12-06T10:08:55.858Z,97826.33
2017-12-06T10:10:35.835Z,97835.52
2017-12-06T10:12:15.339Z,97808.42
2017-12-06T10:15:31.446Z,97727.70
2017-12-06T10:17:11.342Z,97623.83
2017-12-06T10:18:51.141Z,97688.00
2017-12-06T10:20:30.589Z,97729.50
2017-12-06T10:22:29.754Z,97667.88
2017-12-06T10:24:10.793Z,97656.43
2017-12-06T10:25:57.059Z,97532.23
2017-12-06T10:27:35.897Z,97583.67
2017-12-06T10:29:15.378Z,97499.52
2017-12-06T10:30:54.778Z,97624.69
2017-12-06T10:32:34.776Z,97661.28
2017-12-06T10:34:15.277Z,97639.02
2017-12-06T10:35:59.977Z,97511.22
2017-12-06T10:37:39.625Z,97588.05
2017-12-06T10:39:18.381Z,97556.58
2017-12-06T10:40:57.292Z,97455.45
2017-12-06T10:42:36.181Z,97553.11
2017-12-06T10:44:16.591Z,97585.91
2017-12-06T10:45:57.883Z,97530.52
2017-12-06T10:47:37.085Z,97606.41
2017-12-06T10:49:17.796Z,97795.36
2017-12-06T10:50:56.585Z,97826.76
2017-12-06T10:52:36.816Z,97821.98
2017-12-06T10:54:16.487Z,97728.48
2017-12-06T10:55:54.981Z,97729.89
2017-12-06T10:59:09.374Z,97824.10
2017-12-06T11:00:49.676Z,97769.56
2017-12-06T11:02:29.749Z,97850.45
2017-12-06T11:04:09.179Z,97760.80
2017-12-06T11:05:48.474Z,97801.85
2017-12-06T11:07:28.747Z,97892.30
2017-12-06T11:09:07.964Z,97966.11
2017-12-06T11:10:48.463Z,97890.91
2017-12-06T11:12:27.350Z,97715.04
2017-12-06T11:14:07.672Z,97763.89
2017-12-06T11:15:46.915Z,97742.55
2017-12-06T11:17:26.169Z,97874.94
2017-12-06T11:19:05.960Z,97904.08
2017-12-06T11:20:44.865Z,97821.48
2017-12-06T11:22:24.071Z,97716.33
2017-12-06T11:24:05.065Z,97811.51
2017-12-06T11:25:49.866Z,97866.10
2017-12-06T11:27:28.783Z,98019.02
2017-12-06T11:29:08.725Z,97991.55
2017-12-06T11:30:49.873Z,97945.17
2017-12-06T11:32:29.559Z,98020.39
2017-12-06T11:34:08.152Z,97978.39
2017-12-06T11:35:49.372Z,98022.90
2017-12-06T11:37:28.462Z,98122.72
2017-12-06T11:39:08.351Z,98196.72
2017-12-06T11:40:49.053Z,98130.98
2017-12-06T11:42:27.773Z,98060.61
2017-12-06T11:44:07.452Z,98079.52
2017-12-06T11:45:47.656Z,98127.14
2017-12-06T11:47:28.755Z,98221.62
2017-12-06T11:49:07.656Z,98321.52
2017-12-06T11:50:47.049Z,98274.19
2017-12-06T11:52:26.053Z,98225.25
2017-12-06T11:54:05.750Z,98257.52
2017-12-06T11:55:46.003Z,98313.62
2017-12-06T11:57:25.166Z,98331.63
2017-12-06T11:59:05.808Z,98284.22
2017-12-06T12:00:46.081Z,98012.92
2017-12-06T12:02:27.159Z,98009.55
2017-12-06T12:04:08.483Z,98128.95
2017-12-06T12:05:49.080Z,98241.84
2017-12-06T12:07:29.277Z,98238.78
2017-12-06T12:11:25.331Z,98161.70
2017-12-06T12:13:30.097Z,98172.67
2017-12-06T12:15:32.600Z,98234.39
2017-12-06T12:17:14.308Z,98223.38
2017-12-06T12:18:58.504Z,97928.97
2017-12-06T12:20:38.304Z,97949.55
2017-12-06T12:22:17.612Z,98033.94
2017-12-06T12:23:58.019Z,98018.16
2017-12-06T12:25:37.114Z,98078.58
2017-12-06T12:27:16.124Z,98120.13
2017-12-06T12:28:56.907Z,98020.75
2017-12-06T12:30:41.018Z,97889.30
2017-12-06T12:32:21.114Z,98006.81
2017-12-06T12:34:00.015Z,98041.77
2017-12-06T12:35:41.125Z,98033.00
2017-12-06T12:37:27.815Z,98081.56
2017-12-06T12:39:06.810Z,98117.47
2017-12-06T12:40:46.507Z,98132.36
2017-12-06T12:42:28.801Z,98113.59
2017-12-06T12:44:12.903Z,98165.19
2017-12-06T12:45:54.500Z,98132.31
2017-12-06T12:47:36.199Z,98023.41
2017-12-06T12:49:15.822Z,97893.20
2017-12-06T12:50:56.196Z,97864.81
2017-12-06T12:52:35.903Z,97967.00
2017-12-06T12:54:16.507Z,98007.70
2017-12-06T12:55:56.214Z,98113.48
2017-12-06T12:57:41.909Z,98128.86
2017-12-06T12:59:22.004Z,98129.80
2017-12-06T13:01:01.301Z,98215.14
2017-12-06T13:02:41.697Z,98275.95
2017-12-06T13:04:23.898Z,98315.28
2017-12-06T13:06:06.603Z,98265.48
2017-12-06T13:07:54.025Z,98106.03
2017-12-06T13:09:32.806Z,98217.81
2017-12-06T13:11:15.606Z,98228.16
2017-12-06T13:13:00.629Z,98226.87
2017-12-06T13:14:43.570Z,98195.82
2017-12-06T13:16:23.234Z,98220.78
2017-12-06T13:18:03.722Z,98232.94
2017-12-06T13:19:43.947Z,98165.11
2017-12-06T13:21:29.337Z,97981.02
2017-12-06T13:23:09.135Z,98105.25
2017-12-06T13:24:49.635Z,98163.77
2017-12-06T13:26:29.349Z,98185.67
2017-12-06T13:28:11.737Z,98012.02
2017-12-06T13:29:53.741Z,98027.75
2017-12-06T13:31:34.146Z,97955.66
2017-12-06T13:33:15.755Z,97937.23
2017-12-06T13:34:56.364Z,97971.86
2017-12-06T13:36:36.057Z,98134.52
2017-12-06T13:38:15.757Z,98184.89
2017-12-06T13:39:55.639Z,98015.03
2017-12-06T13:41:36.552Z,98042.20
2017-12-06T13:43:16.951Z,97935.89
2017-12-06T13:44:55.465Z,97946.45
2017-12-06T13:46:35.650Z,98057.59
2017-12-06T13:48:19.256Z,98103.37
2017-12-06T13:49:59.842Z,98028.50
2017-12-06T13:51:39.845Z,97992.37
2017-12-06T13:53:19.840Z,98075.88
2017-12-06T13:54:59.240Z,98197.91
2017-12-06T13:56:41.652Z,98126.59
2017-12-06T13:58:21.737Z,98235.64
2017-12-06T14:00:00.843Z,98294.30
2017-12-06T14:01:40.733Z,98196.18
2017-12-06T14:03:21.135Z,98055.28
2017-12-06T14:05:00.332Z,98125.38
2017-12-06T14:06:44.830Z,98082.84
2017-12-06T14:08:26.629Z,98070.08
2017-12-06T14:11:51.133Z,98137.56
2017-12-06T14:13:32.845Z,98198.80
2017-12-06T14:15:12.729Z,98058.30
2017-12-06T14:16:55.037Z,97889.22
2017-12-06T14:18:36.621Z,97951.70
2017-12-06T14:20:16.145Z,98015.03
2017-12-06T14:21:58.726Z,98001.05
2017-12-06T14:23:38.221Z,98118.29
2017-12-06T14:25:18.024Z,98001.05
2017-12-06T14:27:01.710Z,98015.07
2017-12-06T14:28:43.814Z,98038.16
2017-12-06T14:30:28.513Z,98021.95
2017-12-06T14:32:09.124Z,97895.32
2017-12-06T14:33:49.912Z,97886.12
2017-12-06T14:35:31.822Z,98019.02
2017-12-06T14:37:19.506Z,98082.84
2017-12-06T14:38:58.711Z,98023.80
2017-12-06T14:40:40.009Z,97995.38
2017-12-06T14:42:20.019Z,98099.49
2017-12-06T14:43:59.813Z,98095.06
2017-12-06T14:45:42.711Z,98067.45
2017-12-06T14:47:21.709Z,98074.58
2017-12-06T14:49:01.610Z,98161.19
2017-12-06T14:50:41.352Z,98175.14
2017-12-06T14:52:20.920Z,98197.47
2017-12-06T14:54:04.424Z,98200.53
2017-12-06T14:55:45.953Z,98030.73
2017-12-06T14:57:26.746Z,97959.06
2017-12-06T14:59:12.752Z,98044.36
2017-12-06T15:00:53.059Z,98055.67
2017-12-06T15:02:33.969Z,98082.34
2017-12-06T15:04:13.478Z,98058.72
2017-12-06T15:05:52.588Z,98013.15
2017-12-06T15:07:33.076Z,97899.07
2017-12-06T15:09:13.382Z,97953.70
2017-12-06T15:10:53.503Z,97927.13
2017-12-06T15:12:37.794Z,97807.05
2017-12-06T15:14:13.484Z,97796.18
2017-12-06T15:15:53.411Z,97787.81
2017-12-06T15:17:46.800Z,97751.58
2017-12-06T15:19:31.687Z,97899.63
2017-12-06T15:21:14.495Z,97895.24
2017-12-06T15:22:53.791Z,97916.99
2017-12-06T15:24:33.291Z,97927.48
2017-12-06T15:26:13.188Z,97811.39
2017-12-06T15:27:53.390Z,97867.23
2017-12-06T15:29:33.587Z,97973.50
2017-12-06T15:31:13.377Z,98012.37
2017-12-06T15:32:54.982Z,98022.86
2017-12-06T15:34:40.073Z,97965.55
2017-12-06T15:36:20.466Z,97934.52
2017-12-06T15:38:00.777Z,97955.93
2017-12-06T15:39:46.170Z,97855.81
2017-12-06T15:41:23.901Z,97813.93
2017-12-06T15:43:01.855Z,97826.72
2017-12-06T15:44:39.267Z,97779.06
2017-12-06T15:46:25.172Z,97854.56
2017-12-06T15:48:04.566Z,97854.48
2017-12-06T15:49:47.775Z,97877.75
2017-12-06T15:51:28.162Z,97876.47
2017-12-06T15:53:07.663Z,97778.97
2017-12-06T15:54:50.400Z,97777.25
2017-12-06T15:56:29.148Z,97781.59
2017-12-06T15:58:08.783Z,97812.60
2017-12-06T15:59:48.382Z,97827.92
2017-12-06T16:01:32.480Z,97809.52
2017-12-06T16:03:15.073Z,97798.25
2017-12-06T16:04:54.662Z,97812.76
2017-12-06T16:06:35.475Z,97681.23
2017-12-06T16:08:17.694Z,97511.57
2017-12-06T16:10:03.590Z,97530.86
2017-12-06T16:11:44.494Z,97678.62
2017-12-06T16:13:23.328Z,97621.05
2017-12-06T16:15:02.787Z,97723.52
2017-12-06T16:16:42.287Z,97674.72
2017-12-06T16:18:22.300Z,97738.91
2017-12-06T16:21:43.091Z,97802.12
2017-12-06T16:23:25.777Z,97807.83
2017-12-06T16:25:05.897Z,97613.58
2017-12-06T16:26:47.293Z,97641.97
2017-12-06T16:28:27.589Z,97601.75
2017-12-06T16:30:07.295Z,97602.22
2017-12-06T16:31:50.822Z,97637.17
2017-12-06T16:33:30.189Z,97739.34
2017-12-06T16:35:21.889Z,97776.36
2017-12-06T16:37:36.592Z,97810.06
2017-12-06T16:39:15.988Z,97849.36
2017-12-06T16:40:55.484Z,97783.83
2017-12-06T16:42:34.692Z,97707.88
2017-12-06T16:44:12.402Z,97792.12
2017-12-06T16:45:53.098Z,97822.65
2017-12-06T16:47:33.783Z,97855.89
2017-12-06T16:49:12.881Z,97914.41
2017-12-06T16:50:56.279Z,97911.28
2017-12-06T16:52:40.394Z,97966.45
2017-12-06T16:54:17.414Z,97973.34
2017-12-06T16:55:54.579Z,97887.69
2017-12-06T16:57:31.955Z,97922.27
2017-12-06T16:59:11.861Z,97983.88
2017-12-06T17:00:52.899Z,97837.04
2017-12-06T17:02:32.583Z,97898.68
2017-12-06T17:04:12.417Z,97882.56
2017-12-06T17:05:52.399Z,97986.58
2017-12-06T17:07:33.002Z,97948.38
2017-12-06T17:11:01.623Z,97861.91
2017-12-06T17:12:44.692Z,97838.05
2017-12-06T17:14:28.491Z,97762.44
2017-12-06T17:16:24.469Z,97696.91
2017-12-06T17:18:05.169Z,97686.90
2017-12-06T17:19:46.324Z,97720.58
2017-12-06T17:21:39.091Z,97775.50
2017-12-06T17:23:23.474Z,97777.69
2017-12-06T17:25:08.470Z,97727.50
2017-12-06T17:26:53.948Z,97718.28
2017-12-06T17:28:47.010Z,97766.78
2017-12-06T17:32:02.914Z,97711.62
2017-12-06T17:33:43.850Z,97651.97
2017-12-06T17:35:28.933Z,97636.70
2017-12-06T17:37:08.742Z,97583.95
2017-12-06T17:38:55.338Z,97428.34
2017-12-06T17:40:36.153Z,97495.88
2017-12-06T17:42:17.536Z,97602.65
2017-12-06T17:43:59.049Z,97658.49
2017-12-06T17:45:38.867Z,97605.27
2017-12-06T17:47:19.572Z,97675.53
2017-12-06T17:49:01.379Z,97706.13
2017-12-06T17:50:49.435Z,97609.21
2017-12-06T17:52:28.993Z,97524.22
2017-12-06T17:54:13.481Z,97532.14
2017-12-06T17:55:54.295Z,97714.92
2017-12-06T17:57:35.588Z,97790.86
2017-12-06T17:59:20.213Z,97805.64
2017-12-06T18:01:03.097Z,97864.06
2017-12-06T18:02:49.993Z,97858.83
2017-12-06T18:04:31.835Z,97830.94
2017-12-06T18:06:15.397Z,97845.28
2017-12-06T18:07:56.392Z,97745.36
2017-12-06T18:09:35.920Z,97680.34
2017-12-06T18:11:20.403Z,97747.55
2017-12-06T18:13:01.096Z,97504.46
2017-12-06T18:14:42.301Z,97538.54
2017-12-06T18:16:26.976Z,97572.63
2017-12-06T18:18:07.299Z,97541.63
2017-12-06T18:19:49.555Z,97391.83
2017-12-06T18:21:31.200Z,97469.73
2017-12-06T18:23:11.281Z,97427.01
2017-12-06T18:24:57.689Z,97555.09
2017-12-06T18:26:36.872Z,97603.98
2017-12-06T18:28:19.405Z,97618.43
2017-12-06T18:30:01.455Z,97623.23
2017-12-06T18:31:48.227Z,97727.97
2017-12-06T18:33:35.193Z,97793.83
2017-12-06T18:35:19.575Z,97737.50
2017-12-06T18:37:09.598Z,97707.33
2017-12-06T18:40:54.975Z,97692.95
2017-12-06T18:42:35.868Z,97663.38
2017-12-06T18:44:16.771Z,97661.50
2017-12-06T18:46:04.178Z,97631.51
2017-12-06T18:47:47.463Z,97704.75
2017-12-06T18:49:27.768Z,97750.64
2017-12-06T18:51:13.866Z,97773.34
2017-12-06T18:52:57.699Z,97817.80
2017-12-06T18:54:41.187Z,97826.52
2017-12-06T18:56:26.225Z,97856.63
2017-12-06T18:58:15.764Z,97788.98
2017-12-06T18:59:56.529Z,97775.45
2017-12-06T19:01:41.112Z,97752.31
2017-12-06T19:03:30.340Z,97766.31
2017-12-06T19:05:15.245Z,97778.08
2017-12-06T19:06:59.731Z,97707.76
2017-12-06T19:08:44.821Z,97705.14
2017-12-06T19:12:03.514Z,97572.63
2017-12-06T19:13:46.630Z,97642.83
2017-12-06T19:15:36.936Z,97677.20
2017-12-06T19:17:18.536Z,97680.72
2017-12-06T19:18:59.440Z,97692.53
2017-12-06T19:20:38.339Z,97702.05
2017-12-06T19:22:22.646Z,97743.64
2017-12-06T19:24:01.774Z,97728.36
2017-12-06T19:25:42.446Z,97620.58
2017-12-06T19:27:29.338Z,97658.62
2017-12-06T19:29:23.745Z,97720.47
2017-12-06T19:31:17.022Z,97705.61
2017-12-06T19:32:57.693Z,97717.42
2017-12-06T19:34:42.108Z,97699.00
2017-12-06T19:36:34.308Z,97648.42
2017-12-06T19:43:13.002Z,97761.47
2017-12-06T19:45:36.790Z,97768.03
2017-12-06T19:48:12.005Z,97772.45
2017-12-06T19:50:27.337Z,97685.95
2017-12-06T20:04:05.011Z,97654.59
2017-12-06T20:10:45.978Z,97716.05
2017-12-06T20:13:07.789Z,97729.64
2017-12-06T20:17:54.898Z,97723.98
2017-12-06T20:27:13.309Z,97679.48
2017-12-06T20:29:39.410Z,97686.81
2017-12-06T20:31:59.013Z,97594.37
2017-12-06T20:34:12.305Z,97563.32
2017-12-06T20:38:33.407Z,97540.34
2017-12-06T20:40:42.338Z,97549.47
2017-12-06T20:42:57.438Z,97547.23
2017-12-06T20:45:00.298Z,97499.78
2017-12-06T20:49:29.533Z,97498.36
2017-12-06T20:51:36.907Z,97443.64
2017-12-06T20:53:47.177Z,97554.31
2017-12-06T21:02:32.188Z,97514.02
2017-12-06T21:04:41.475Z,97478.39